Time;durP1;ratioP1;P1;durP2;ratioP2;P2;SDS_P1;SDS_P2;PMS_P1;PMS_P2;Temp;Humidity;BMP_temperature;BMP_pressure;BME280_temperature;BME280_humidity;BME280_pressure;Samples;Min_cycle;Max_cycle;Signal;HPM_P1;HPM_P2
2021/05/26 00:00:06;;;;;;;3.08;0.90;;;;;;;9.61;72.76;100530.47;5023954;28;20029;-76
2021/05/26 00:02:31;;;;;;;3.70;0.93;;;;;;;9.59;72.80;100524.34;5021870;28;20052;-76
2021/05/26 00:04:56;;;;;;;3.92;1.40;;;;;;;9.58;72.05;100525.22;5023444;28;20069;-76
2021/05/26 00:07:22;;;;;;;3.33;1.27;;;;;;;9.55;72.14;100530.50;5024205;28;20037;-76
2021/05/26 00:09:47;;;;;;;4.50;1.20;;;;;;;9.50;72.64;100526.13;5021671;28;20041;-76
2021/05/26 00:12:12;;;;;;;2.85;0.77;;;;;;;9.46;72.06;100514.72;5020736;28;20032;-76
2021/05/26 00:14:39;;;;;;;4.50;1.20;;;;;;;9.47;72.10;100518.22;5027172;28;20491;-76
2021/05/26 00:17:04;;;;;;;2.70;0.77;;;;;;;9.40;72.42;100515.56;5024928;28;20599;-76
2021/05/26 00:19:30;;;;;;;3.28;0.80;;;;;;;9.39;72.44;100519.09;5025108;28;20112;-76
2021/05/26 00:21:56;;;;;;;3.30;0.80;;;;;;;9.34;72.62;100510.34;5024869;28;20033;-76
2021/05/26 00:24:21;;;;;;;2.97;0.80;;;;;;;9.34;72.03;100506.81;5021459;28;20578;-76
2021/05/26 00:26:47;;;;;;;2.05;0.60;;;;;;;9.30;72.60;100508.59;5021484;28;20026;-76
2021/05/26 00:29:13;;;;;;;2.75;0.90;;;;;;;9.32;72.14;100495.41;5021859;28;20484;-76
2021/05/26 00:31:39;;;;;;;2.10;0.70;;;;;;;9.27;72.26;100507.69;5023800;28;20167;-76
2021/05/26 00:34:04;;;;;;;3.03;0.95;;;;;;;9.34;72.15;100505.06;5022314;28;20104;-76
2021/05/26 00:36:30;;;;;;;3.58;0.80;;;;;;;9.39;71.65;100492.75;5025686;28;20042;-76
2021/05/26 00:38:56;;;;;;;3.47;0.88;;;;;;;9.40;71.37;100498.91;5025577;28;20033;-76
2021/05/26 00:41:27;;;;;;;2.60;0.88;;;;;;;9.50;71.29;100500.63;5022023;28;20018;-76
2021/05/26 00:43:52;;;;;;;1.95;0.75;;;;;;;9.53;71.42;100508.53;5003505;28;20038;-76
2021/05/26 00:46:18;;;;;;;2.53;0.80;;;;;;;9.59;70.99;100498.00;5022317;28;20048;-76
2021/05/26 00:48:43;;;;;;;4.50;0.90;;;;;;;9.63;71.07;100502.38;5022476;28;20041;-76
2021/05/26 00:51:08;;;;;;;4.05;1.13;;;;;;;9.64;70.91;100506.78;5019535;28;20045;-76
2021/05/26 00:53:35;;;;;;;3.72;1.42;;;;;;;9.54;70.67;100510.31;5023404;28;20033;-76
2021/05/26 00:56:01;;;;;;;2.67;1.08;;;;;;;9.66;71.11;100497.06;5044659;28;20864;-76
2021/05/26 00:58:26;;;;;;;2.15;0.82;;;;;;;9.63;71.19;100502.38;5030673;28;20120;-76
2021/05/26 01:00:52;;;;;;;3.58;0.98;;;;;;;9.70;70.79;100497.09;5021006;28;20084;-76
2021/05/26 01:03:19;;;;;;;2.15;0.60;;;;;;;9.73;71.11;100503.22;5022904;28;20037;-77
2021/05/26 01:05:44;;;;;;;2.15;0.70;;;;;;;9.79;71.34;100502.31;5020677;28;20045;-76
2021/05/26 01:08:11;;;;;;;3.85;0.57;;;;;;;9.83;71.18;100502.31;5021923;28;20505;-77
2021/05/26 01:10:37;;;;;;;3.92;0.80;;;;;;;9.82;70.86;100505.84;5028121;28;20033;-76
2021/05/26 01:13:07;;;;;;;3.70;0.60;;;;;;;9.76;71.30;100497.06;5029326;28;20033;-76
2021/05/26 01:15:33;;;;;;;1.45;0.50;;;;;;;9.79;71.43;100504.94;5027073;28;20046;-76
2021/05/26 01:18:23;;;;;;;1.77;0.40;;;;;;;9.75;72.08;100497.97;5030439;28;20146;-76
2021/05/26 01:20:53;;;;;;;2.42;0.50;;;;;;;9.71;71.69;100502.34;5015917;28;20052;-77
2021/05/26 01:23:19;;;;;;;1.77;0.70;;;;;;;9.66;71.38;100493.56;5029706;28;20516;-76
2021/05/26 01:25:54;;;;;;;1.40;0.63;;;;;;;9.55;72.23;100493.59;5018985;28;20042;-76
2021/05/26 01:28:21;;;;;;;1.60;0.35;;;;;;;9.43;72.91;100498.88;5020315;28;20036;-77
2021/05/26 01:30:47;;;;;;;3.85;0.70;;;;;;;9.33;72.67;100497.19;5029082;28;20033;-77
2021/05/26 01:33:13;;;;;;;1.20;0.45;;;;;;;9.26;72.95;100487.53;5022346;28;20514;-76
2021/05/26 01:35:45;;;;;;;4.47;0.60;;;;;;;9.19;73.39;100487.50;5028481;28;20061;-76
2021/05/26 01:38:20;;;;;;;1.65;0.52;;;;;;;9.14;72.98;100489.31;5029200;28;20175;-77
2021/05/26 01:40:46;;;;;;;2.65;0.50;;;;;;;9.11;73.19;100489.28;5022480;28;20035;-76
2021/05/26 01:43:12;;;;;;;2.65;0.60;;;;;;;9.07;73.21;100492.81;5018656;28;20072;-76
2021/05/26 01:45:38;;;;;;;3.67;0.68;;;;;;;9.01;73.45;100490.16;5021483;28;20037;-77
2021/05/26 01:48:05;;;;;;;3.70;1.02;;;;;;;8.95;73.58;100490.19;5028888;28;20025;-76
2021/05/26 01:50:31;;;;;;;2.42;0.52;;;;;;;8.90;73.44;100484.91;5023944;28;20040;-76
2021/05/26 01:53:06;;;;;;;3.67;0.68;;;;;;;8.84;74.17;100484.03;5022164;28;20057;-77
2021/05/26 01:55:35;;;;;;;3.38;0.80;;;;;;;8.77;73.75;100486.66;5022562;28;20029;-76
2021/05/26 01:58:01;;;;;;;4.45;0.80;;;;;;;8.75;73.83;100485.81;5021910;28;20071;-76
2021/05/26 02:00:32;;;;;;;3.40;0.63;;;;;;;8.71;74.36;100480.53;5018807;28;20113;-76
2021/05/26 02:03:00;;;;;;;4.25;0.70;;;;;;;8.68;74.47;100483.16;5021119;28;20038;-76
2021/05/26 02:05:26;;;;;;;5.55;0.75;;;;;;;8.66;74.19;100483.16;5045675;28;20490;-76
2021/05/26 02:07:52;;;;;;;3.92;0.70;;;;;;;8.65;74.00;100475.28;5020694;28;20113;-76
2021/05/26 02:12:21;;;;;;;1.92;1.00;;;;;;;8.62;74.99;100473.50;5021897;28;20099;-76
2021/05/26 02:13:04;;;;;;;3.13;0.63;;;;;;;8.64;74.52;100473.50;5038322;28;20032;-76
2021/05/26 02:15:30;;;;;;;3.45;0.85;;;;;;;8.69;74.54;100472.63;5029704;28;20029;-76
2021/05/26 02:17:56;;;;;;;4.05;0.60;;;;;;;8.73;74.37;100473.53;5021410;28;20036;-76
2021/05/26 02:20:21;;;;;;;5.05;0.80;;;;;;;8.86;73.35;100475.28;5044448;28;20048;-76
2021/05/26 02:22:48;;;;;;;2.33;0.80;;;;;;;8.92;73.33;100470.00;5028370;28;20037;-75
2021/05/26 02:25:14;;;;;;;3.78;1.10;;;;;;;9.02;72.62;100464.75;5042460;28;20519;-76
2021/05/26 02:27:39;;;;;;;6.20;1.80;;;;;;;9.10;73.38;100461.22;5029478;28;20033;-76
2021/05/26 02:30:18;;;;;;;4.78;1.80;;;;;;;9.31;72.89;100459.44;5019830;28;20034;-76
2021/05/26 02:32:43;;;;;;;7.43;2.08;;;;;;;9.46;71.94;100448.84;5018016;28;20447;-76
2021/05/26 02:35:09;;;;;;;8.32;2.55;;;;;;;9.51;71.05;100452.34;5021427;28;20033;-76
2021/05/26 02:37:35;;;;;;;5.88;2.17;;;;;;;9.58;71.94;100451.44;5030544;28;20037;-76
2021/05/26 02:40:02;;;;;;;6.25;1.60;;;;;;;9.64;71.34;100461.06;5016668;28;20030;-76
2021/05/26 02:42:29;;;;;;;5.88;1.55;;;;;;;9.69;71.16;100464.56;5028513;28;20111;-76
2021/05/26 02:44:55;;;;;;;3.58;1.35;;;;;;;9.76;70.62;100466.31;5033238;28;20030;-76
2021/05/26 02:47:22;;;;;;;4.05;1.35;;;;;;;9.75;70.62;100464.56;5022130;28;20469;-76
2021/05/26 02:49:47;;;;;;;3.47;0.90;;;;;;;9.74;69.79;100462.78;5024840;28;20033;-76
2021/05/26 02:52:14;;;;;;;6.95;1.15;;;;;;;9.85;71.05;100465.38;5031412;28;20155;-76
2021/05/26 02:54:40;;;;;;;2.63;0.95;;;;;;;9.85;70.50;100465.38;5032464;28;20044;-76
2021/05/26 02:57:05;;;;;;;4.72;0.90;;;;;;;9.87;70.22;100468.91;5023971;28;20030;-76
2021/05/26 02:59:49;;;;;;;11.27;1.20;;;;;;;9.81;70.70;100472.44;5023917;28;20068;-76
2021/05/26 03:02:45;;;;;;;3.90;1.05;;;;;;;9.75;70.85;100468.97;5023827;28;20553;-76
2021/05/26 03:05:14;;;;;;;3.92;0.90;;;;;;;9.74;71.42;100473.34;5025488;28;20399;-76
2021/05/26 03:07:40;;;;;;;3.05;0.80;;;;;;;9.76;70.82;100468.06;5024540;28;20034;-76
2021/05/26 03:10:08;;;;;;;4.18;0.90;;;;;;;9.73;70.95;100461.06;5022816;28;20117;-76
2021/05/26 03:12:38;;;;;;;3.58;0.85;;;;;;;9.76;70.91;100458.41;5022702;28;20029;-77
2021/05/26 03:15:08;;;;;;;5.78;1.08;;;;;;;9.80;70.52;100467.19;5015677;28;20026;-76
2021/05/26 03:17:35;;;;;;;2.67;0.85;;;;;;;9.76;70.46;100458.41;5025204;28;20138;-76
2021/05/26 03:20:04;;;;;;;2.22;0.82;;;;;;;9.71;70.81;100459.31;5008610;28;20048;-76
2021/05/26 03:22:29;;;;;;;4.30;1.00;;;;;;;9.68;70.79;100461.97;5022778;28;20048;-76
2021/05/26 03:25:18;;;;;;;3.97;1.17;;;;;;;9.65;70.85;100454.94;5025070;28;20081;-76
2021/05/26 03:27:49;;;;;;;4.13;0.88;;;;;;;9.62;70.77;100454.97;5031315;28;20443;-76
2021/05/26 03:30:17;;;;;;;2.45;0.70;;;;;;;9.62;71.29;100455.81;5023677;28;20037;-76
2021/05/26 03:32:43;;;;;;;4.05;0.77;;;;;;;9.62;71.08;100458.47;5031119;28;20033;-76
2021/05/26 03:35:11;;;;;;;4.40;1.25;;;;;;;9.56;70.81;100458.50;5020941;28;20026;-76
2021/05/26 03:37:38;;;;;;;4.53;1.00;;;;;;;9.50;71.22;100453.22;5024050;28;20032;-76
2021/05/26 03:40:09;;;;;;;4.22;1.00;;;;;;;9.49;71.35;100454.13;5030220;28;20037;-75
2021/05/26 03:42:35;;;;;;;4.82;1.05;;;;;;;9.42;71.68;100449.72;5028598;28;20044;-75
2021/05/26 03:45:01;;;;;;;1.85;0.55;;;;;;;9.32;71.72;100456.78;5022987;28;20126;-75
2021/05/26 03:47:26;;;;;;;4.57;0.80;;;;;;;9.29;72.09;100462.06;5023973;28;20089;-76
2021/05/26 03:49:56;;;;;;;5.65;1.20;;;;;;;9.13;72.15;100457.69;5044656;28;20033;-76
2021/05/26 03:52:22;;;;;;;3.13;0.60;;;;;;;9.11;72.46;100455.06;5031887;28;20407;-76
2021/05/26 03:54:50;;;;;;;2.95;0.80;;;;;;;9.11;72.15;100452.41;5021154;28;20037;-77
2021/05/26 03:57:16;;;;;;;3.00;0.80;;;;;;;9.10;72.30;100452.44;5024281;28;20130;-77
2021/05/26 03:59:44;;;;;;;4.88;1.05;;;;;;;9.10;72.42;100455.94;5047708;28;20084;-77
2021/05/26 04:02:09;;;;;;;3.63;1.10;;;;;;;9.08;72.87;100455.06;5022610;28;20057;-77
2021/05/26 04:04:38;;;;;;;5.95;1.50;;;;;;;9.16;72.48;100452.41;5012509;28;20041;-76
2021/05/26 04:07:05;;;;;;;5.65;1.17;;;;;;;9.27;72.35;100457.66;5031180;28;20289;-77
2021/05/26 04:09:32;;;;;;;3.78;1.17;;;;;;;9.39;71.57;100453.25;5022803;28;20030;-77
2021/05/26 04:11:58;;;;;;;3.85;1.30;;;;;;;9.52;71.76;100454.09;5020507;28;20105;-76
2021/05/26 04:15:04;;;;;;;3.17;0.75;;;;;;;9.71;70.91;100451.41;5022392;28;20048;-76
2021/05/26 04:17:48;;;;;;;3.85;0.80;;;;;;;9.86;70.37;100452.22;5024192;28;20067;-76
2021/05/26 04:20:24;;;;;;;4.15;0.93;;;;;;;9.97;70.43;100449.53;5043012;28;20029;-76
2021/05/26 04:22:51;;;;;;;1.80;0.65;;;;;;;10.09;69.38;100438.03;5031220;28;20032;-75
2021/05/26 04:25:18;;;;;;;3.08;0.80;;;;;;;10.18;69.70;100445.03;5020158;28;20580;-75
2021/05/26 04:27:45;;;;;;;4.13;1.02;;;;;;;10.32;69.08;100440.56;5022068;28;20112;-75
2021/05/26 04:30:12;;;;;;;5.35;1.15;;;;;;;10.38;69.67;100440.53;5029674;28;20029;-75
2021/05/26 04:32:42;;;;;;;3.55;0.90;;;;;;;10.51;69.26;100443.97;5026456;28;20029;-76
2021/05/26 04:35:08;;;;;;;2.92;0.80;;;;;;;10.60;68.60;100440.38;5045006;28;20451;-77
2021/05/26 04:37:33;;;;;;;4.20;1.20;;;;;;;10.57;68.54;100443.91;5024633;28;20037;-76
2021/05/26 04:39:58;;;;;;;3.42;0.90;;;;;;;10.47;68.71;100440.44;5021500;28;20037;-76
2021/05/26 04:42:24;;;;;;;4.75;0.90;;;;;;;10.60;68.22;100450.94;5020882;28;20460;-76
2021/05/26 04:44:49;;;;;;;3.85;0.95;;;;;;;10.62;68.33;100444.75;5029974;28;20709;-76
2021/05/26 04:47:15;;;;;;;6.88;1.65;;;;;;;10.58;67.89;100434.22;5022113;28;20053;-76
2021/05/26 04:49:40;;;;;;;3.22;0.73;;;;;;;10.65;67.91;100443.84;5027505;28;20097;-76
2021/05/26 04:52:05;;;;;;;4.88;0.80;;;;;;;10.69;68.05;100440.31;5030497;28;20030;-77
2021/05/26 04:54:31;;;;;;;4.82;1.20;;;;;;;10.83;67.63;100438.41;5021071;28;20041;-78
2021/05/26 04:56:57;;;;;;;3.60;1.10;;;;;;;10.94;67.51;100436.53;5020977;28;20045;-76
2021/05/26 04:59:22;;;;;;;9.35;2.60;;;;;;;11.05;67.11;100433.81;5023217;28;20075;-76
2021/05/26 05:01:48;;;;;;;4.18;1.17;;;;;;;11.19;66.63;100441.63;5023237;28;20091;-76
2021/05/26 05:04:14;;;;;;;5.00;1.10;;;;;;;11.22;66.27;100432.78;5044031;28;20038;-76
2021/05/26 05:06:39;;;;;;;4.57;1.27;;;;;;;11.33;66.53;100433.53;5030573;28;20041;-76
2021/05/26 05:09:07;;;;;;;4.95;1.17;;;;;;;11.40;65.62;100430.81;5019597;28;20135;-76
2021/05/26 05:11:32;;;;;;;5.47;1.00;;;;;;;11.44;65.28;100436.06;5022407;28;20032;-76
2021/05/26 05:13:57;;;;;;;4.68;1.00;;;;;;;11.53;65.15;100441.25;5020676;28;20029;-76
2021/05/26 05:16:23;;;;;;;3.80;1.00;;;;;;;11.60;65.42;100437.63;5023086;28;20037;-75
2021/05/26 05:18:48;;;;;;;3.45;1.20;;;;;;;11.73;64.93;100435.72;5021650;28;20063;-76
2021/05/26 05:21:14;;;;;;;4.25;1.13;;;;;;;12.05;64.52;100441.50;5019162;28;20057;-75
2021/05/26 05:23:39;;;;;;;5.18;1.20;;;;;;;12.17;63.98;100436.94;5022764;28;20106;-75
2021/05/26 05:26:05;;;;;;;5.15;1.60;;;;;;;12.33;63.48;100437.56;5026586;28;20030;-76
2021/05/26 05:28:30;;;;;;;5.15;1.30;;;;;;;12.31;62.51;100428.78;5024041;28;20183;-76
2021/05/26 05:30:55;;;;;;;5.45;1.50;;;;;;;12.34;63.04;100431.38;5018855;28;20053;-75
2021/05/26 05:33:21;;;;;;;4.28;1.20;;;;;;;12.27;62.97;100434.13;5020310;28;20034;-76
2021/05/26 05:35:46;;;;;;;5.22;1.58;;;;;;;12.30;62.81;100429.69;5025667;28;20496;-75
2021/05/26 05:38:12;;;;;;;3.70;0.80;;;;;;;12.18;63.17;100425.44;5030926;28;20134;-76
2021/05/26 05:40:37;;;;;;;8.48;1.77;;;;;;;12.27;63.87;100434.13;5027226;28;20511;-75
2021/05/26 05:43:03;;;;;;;6.68;1.88;;;;;;;12.22;63.68;100430.66;5023397;28;20033;-76
2021/05/26 05:45:28;;;;;;;4.15;1.45;;;;;;;12.26;62.40;100419.16;5022555;28;20037;-76
2021/05/26 05:47:53;;;;;;;2.30;0.73;;;;;;;12.30;62.94;100419.97;5023443;28;20026;-75
2021/05/26 05:50:19;;;;;;;4.28;1.30;;;;;;;12.49;62.41;100425.84;5019258;28;20044;-76
2021/05/26 05:52:49;;;;;;;3.50;0.90;;;;;;;12.65;61.00;100423.84;5022327;28;20036;-76
2021/05/26 05:55:16;;;;;;;6.30;1.80;;;;;;;12.83;61.05;100420.00;5020197;28;20030;-76
2021/05/26 05:57:41;;;;;;;3.92;1.33;;;;;;;12.90;60.77;100405.75;5029798;28;20029;-75
2021/05/26 06:00:09;;;;;;;9.23;1.80;;;;;;;12.85;59.87;100412.91;5022336;28;20510;-75
2021/05/26 06:02:43;;;;;;;6.78;1.50;;;;;;;12.86;59.71;100420.84;5027911;28;20055;-76
2021/05/26 06:05:11;;;;;;;4.43;1.13;;;;;;;12.98;59.73;100419.75;5019965;28;20499;-76
2021/05/26 06:07:36;;;;;;;8.50;1.33;;;;;;;12.91;59.33;100412.78;5021873;28;20032;-75
2021/05/26 06:10:03;;;;;;;4.88;1.20;;;;;;;12.99;59.36;100421.47;5021944;28;20037;-74
2021/05/26 06:12:29;;;;;;;5.82;1.25;;;;;;;13.05;59.42;100424.03;5026950;28;20048;-76
2021/05/26 06:14:54;;;;;;;4.82;1.20;;;;;;;13.13;58.80;100422.13;5048324;28;20025;-75
2021/05/26 06:17:19;;;;;;;5.63;1.38;;;;;;;13.19;58.74;100413.19;5035220;28;20500;-76
2021/05/26 06:19:45;;;;;;;5.82;1.50;;;;;;;13.32;59.12;100408.56;5033639;28;20052;-75
2021/05/26 06:22:10;;;;;;;5.40;1.40;;;;;;;13.61;58.49;100417.72;5026828;28;20041;-75
2021/05/26 06:24:39;;;;;;;5.88;1.25;;;;;;;13.71;57.98;100411.31;5052240;28;20029;-76
2021/05/26 06:27:05;;;;;;;3.80;1.00;;;;;;;13.70;57.75;100415.75;5033542;28;20398;-76
2021/05/26 06:29:30;;;;;;;5.13;1.13;;;;;;;13.80;57.28;100425.22;5028843;28;20034;-76
2021/05/26 06:31:56;;;;;;;9.63;1.23;;;;;;;13.91;56.43;100419.72;5028635;28;20079;-76
2021/05/26 06:34:21;;;;;;;3.47;1.02;;;;;;;13.68;56.58;100414.03;5027008;28;20070;-75
2021/05/26 06:36:47;;;;;;;5.32;1.20;;;;;;;13.82;56.23;100425.22;5026583;28;20104;-75
2021/05/26 06:39:12;;;;;;;4.25;1.13;;;;;;;13.67;56.83;100414.91;5028566;28;20027;-75
2021/05/26 06:41:38;;;;;;;5.50;1.40;;;;;;;13.85;56.32;100411.88;5026539;28;20606;-75
2021/05/26 06:44:03;;;;;;;4.03;1.40;;;;;;;14.02;56.97;100407.09;5026645;28;20044;-76
2021/05/26 06:46:29;;;;;;;4.82;1.00;;;;;;;14.28;55.60;100407.38;5028724;28;20033;-74
2021/05/26 06:48:54;;;;;;;6.00;1.25;;;;;;;14.27;54.94;100406.53;5026449;28;20038;-76
2021/05/26 06:51:19;;;;;;;7.05;1.77;;;;;;;14.55;55.82;100397.94;5026608;28;20037;-76
2021/05/26 06:53:45;;;;;;;6.55;1.40;;;;;;;14.27;54.95;100405.66;5034732;28;20037;-75
2021/05/26 06:56:11;;;;;;;7.65;2.13;;;;;;;14.55;54.61;100405.91;5026452;28;20655;-75
2021/05/26 06:58:39;;;;;;;4.18;1.30;;;;;;;14.70;53.29;100405.53;5026786;28;20037;-75
2021/05/26 07:01:04;;;;;;;5.95;1.33;;;;;;;14.55;53.71;100408.56;5028393;28;20075;-75
2021/05/26 07:03:29;;;;;;;5.18;1.23;;;;;;;14.46;53.33;100415.81;5026244;28;20037;-74
2021/05/26 07:05:55;;;;;;;5.38;1.25;;;;;;;14.37;53.35;100397.44;5026612;28;20523;-76
2021/05/26 07:08:20;;;;;;;5.80;1.13;;;;;;;14.40;53.49;100418.59;5028517;28;20041;-75
2021/05/26 07:10:45;;;;;;;5.03;1.23;;;;;;;14.21;53.56;100406.66;5026256;28;20037;-75
2021/05/26 07:13:11;;;;;;;4.43;0.75;;;;;;;14.25;54.73;100413.63;5026489;28;20038;-76
2021/05/26 07:15:36;;;;;;;5.32;1.55;;;;;;;14.30;54.50;100417.06;5028353;28;20506;-75
2021/05/26 07:18:06;;;;;;;5.43;1.15;;;;;;;14.18;53.77;100414.72;5026059;28;20038;-74
2021/05/26 07:20:32;;;;;;;5.38;1.23;;;;;;;14.31;54.17;100402.03;5026160;28;20698;-75
2021/05/26 07:22:59;;;;;;;5.82;1.20;;;;;;;14.35;53.82;100412.50;5023944;28;20033;-74
2021/05/26 07:25:24;;;;;;;4.65;1.30;;;;;;;14.46;53.96;100414.91;5023683;28;20113;-75
2021/05/26 07:27:50;;;;;;;4.35;1.10;;;;;;;14.51;53.64;100418.34;5022987;28;20526;-75
2021/05/26 07:30:17;;;;;;;3.70;1.10;;;;;;;14.42;53.98;100414.13;5025007;28;20037;-75
2021/05/26 07:32:42;;;;;;;4.68;1.33;;;;;;;14.57;53.67;100404.97;5023395;28;20168;-75
2021/05/26 07:35:08;;;;;;;4.05;1.35;;;;;;;14.58;54.39;100405.81;5022530;28;20065;-76
2021/05/26 07:37:35;;;;;;;6.88;1.38;;;;;;;14.80;54.51;100403.50;5030763;28;20034;-76
2021/05/26 07:40:00;;;;;;;5.60;1.17;;;;;;;14.88;53.14;100397.09;5023576;28;20127;-75
2021/05/26 07:42:25;;;;;;;4.68;1.30;;;;;;;15.15;53.23;100399.94;5024561;28;20480;-76
2021/05/26 07:44:51;;;;;;;5.93;1.15;;;;;;;15.39;53.94;100389.53;5020893;28;20057;-75
2021/05/26 07:47:16;;;;;;;7.78;1.38;;;;;;;15.30;51.49;100387.97;5023703;28;20127;-74
2021/05/26 07:49:42;;;;;;;5.65;1.23;;;;;;;15.14;51.43;100395.50;5024353;28;20132;-76
2021/05/26 07:52:09;;;;;;;4.10;1.58;;;;;;;15.10;51.60;100389.41;5021791;28;20050;-75
2021/05/26 07:54:35;;;;;;;5.88;1.17;;;;;;;15.44;51.26;100390.28;5029000;28;20032;-75
2021/05/26 07:57:01;;;;;;;4.03;1.17;;;;;;;15.46;49.32;100388.44;5032050;28;20037;-75
2021/05/26 07:59:27;;;;;;;4.60;1.20;;;;;;;15.41;49.98;100380.59;5030818;28;20025;-75
2021/05/26 08:01:52;;;;;;;5.70;1.52;;;;;;;15.63;50.22;100382.63;5025288;28;20555;-75
2021/05/26 08:04:18;;;;;;;7.50;2.40;;;;;;;15.74;50.15;100376.09;5030267;28;20041;-75
2021/05/26 08:06:43;;;;;;;3.78;1.15;;;;;;;15.69;48.18;100383.38;5029397;28;20038;-75
2021/05/26 08:09:09;;;;;;;4.95;1.35;;;;;;;15.56;49.23;100376.59;5023319;28;20056;-75
2021/05/26 08:11:34;;;;;;;5.68;1.27;;;;;;;15.66;48.37;100372.75;5046903;28;20041;-75
2021/05/26 08:13:59;;;;;;;5.80;1.15;;;;;;;15.81;49.61;100370.59;5024574;28;20052;-75
2021/05/26 08:16:25;;;;;;;4.40;1.10;;;;;;;16.21;49.47;100365.75;5022955;28;20052;-76
2021/05/26 08:18:51;;;;;;;2.78;0.85;;;;;;;16.24;48.71;100354.13;5021908;28;20064;-75
2021/05/26 08:21:17;;;;;;;4.20;1.10;;;;;;;16.32;49.03;100351.22;5030408;28;20068;-75
2021/05/26 08:23:43;;;;;;;3.35;1.15;;;;;;;16.48;47.73;100352.50;5022845;28;20038;-76
2021/05/26 08:26:12;;;;;;;4.78;1.13;;;;;;;16.42;48.54;100345.53;5021904;28;20080;-75
2021/05/26 08:28:38;;;;;;;3.95;1.17;;;;;;;15.87;48.68;100349.13;5024286;28;20042;-75
2021/05/26 08:31:03;;;;;;;4.63;1.27;;;;;;;15.43;50.04;100340.63;5022852;28;20038;-76
2021/05/26 08:33:28;;;;;;;7.60;1.45;;;;;;;15.32;50.70;100341.81;5020711;28;20056;-75
2021/05/26 08:35:53;;;;;;;7.05;1.55;;;;;;;15.04;51.10;100340.88;5023999;28;20037;-74
2021/05/26 08:38:19;;;;;;;4.15;1.02;;;;;;;15.03;51.35;100339.13;5022800;28;20038;-75
2021/05/26 08:40:44;;;;;;;5.05;1.70;;;;;;;15.02;52.20;100343.56;5021329;28;20050;-75
2021/05/26 08:43:14;;;;;;;4.40;1.10;;;;;;;14.80;53.48;100343.28;5023749;28;20041;-76
2021/05/26 08:45:40;;;;;;;6.00;1.30;;;;;;;14.50;54.53;100336.06;5023050;28;20535;-75
2021/05/26 08:48:08;;;;;;;6.07;1.10;;;;;;;14.11;56.48;100347.63;5020989;28;20045;-75
2021/05/26 08:50:34;;;;;;;5.20;1.55;;;;;;;13.99;57.08;100337.28;5022662;28;20037;-74
2021/05/26 08:52:59;;;;;;;4.90;1.30;;;;;;;14.03;57.16;100331.88;5023053;28;20261;-75
2021/05/26 08:55:25;;;;;;;5.22;1.10;;;;;;;14.21;56.93;100329.69;5020990;28;20040;-75
2021/05/26 08:57:50;;;;;;;5.88;1.30;;;;;;;14.06;57.63;100324.75;5022859;28;20132;-75
2021/05/26 09:00:16;;;;;;;5.00;1.23;;;;;;;14.13;57.17;100326.38;5022968;28;20065;-75
2021/05/26 09:02:41;;;;;;;6.22;1.30;;;;;;;14.17;56.05;100326.25;5020941;28;20502;-75
2021/05/26 09:05:24;;;;;;;6.50;1.10;;;;;;;14.19;57.37;100324.41;5023303;28;20099;-75
2021/05/26 09:07:50;;;;;;;4.68;1.35;;;;;;;14.03;57.83;100323.03;5021723;28;20038;-75
2021/05/26 09:10:15;;;;;;;5.32;1.17;;;;;;;13.95;58.06;100317.06;5021376;28;20129;-75
2021/05/26 09:12:42;;;;;;;7.35;1.63;;;;;;;13.96;58.73;100327.63;5023027;28;20072;-75
2021/05/26 09:15:16;;;;;;;5.28;1.10;;;;;;;14.02;59.11;100311.56;5021139;28;20042;-75
2021/05/26 09:17:47;;;;;;;5.57;1.20;;;;;;;14.18;58.11;100312.06;5020894;28;20130;-75
2021/05/26 09:20:22;;;;;;;8.00;1.50;;;;;;;14.30;57.28;100304.69;5021950;28;20040;-75
2021/05/26 09:23:07;;;;;;;6.55;2.30;;;;;;;14.45;56.51;100305.19;5022853;28;20419;-75
2021/05/26 09:25:37;;;;;;;7.25;1.25;;;;;;;14.50;56.25;100297.09;5022911;28;20041;-75
2021/05/26 09:28:30;;;;;;;6.90;1.63;;;;;;;14.43;56.14;100304.34;5022621;28;20048;-76
2021/05/26 09:31:04;;;;;;;4.93;1.15;;;;;;;14.56;54.67;100307.59;5039028;28;20476;-75
2021/05/26 09:33:33;;;;;;;6.07;1.05;;;;;;;14.44;54.68;100308.75;5021068;28;20501;-75
2021/05/26 09:36:11;;;;;;;6.07;1.17;;;;;;;14.42;55.19;100304.41;5022656;28;20187;-75
2021/05/26 09:38:43;;;;;;;2.92;1.13;;;;;;;14.33;55.13;100305.50;5045765;28;20504;-75
2021/05/26 09:41:09;;;;;;;;;;;;;;;14.20;56.98;100309.34;5022230;28;20071;-74
2021/05/26 09:43:42;;;;;;;4.32;1.13;;;;;;;14.22;57.25;100304.88;5022337;28;20023;-75
2021/05/26 09:46:18;;;;;;;6.68;1.40;;;;;;;14.02;57.79;100308.03;5020303;28;20034;-74
2021/05/26 09:48:58;;;;;;;3.53;0.90;;;;;;;13.66;60.48;100301.81;5020212;28;20084;-75
2021/05/26 09:51:35;;;;;;;3.92;1.20;;;;;;;13.53;61.69;100307.38;5019844;28;20045;-75
2021/05/26 09:54:15;;;;;;;8.70;5.00;;;;;;;13.46;62.62;100308.41;5020789;28;20389;-75
2021/05/26 09:56:43;;;;;;;9.57;3.45;;;;;;;13.42;62.52;100309.38;5022444;28;20045;-75
2021/05/26 09:59:08;;;;;;;6.85;1.33;;;;;;;13.34;63.65;100306.03;5022755;28;20045;-76
2021/05/26 10:01:35;;;;;;;5.00;1.40;;;;;;;13.39;65.11;100309.47;5024342;28;20137;-75
2021/05/26 10:04:01;;;;;;;3.08;1.25;;;;;;;13.49;64.67;100303.06;5023168;28;20045;-74
2021/05/26 10:06:28;;;;;;;4.57;1.40;;;;;;;13.57;63.96;100298.47;5022400;28;20046;-75
2021/05/26 10:09:13;;;;;;;2.95;1.13;;;;;;;13.64;64.52;100299.19;5019737;28;20069;-75
2021/05/26 10:12:04;;;;;;;3.67;1.20;;;;;;;13.63;64.82;100305.41;5018827;28;20052;-75
2021/05/26 10:14:33;;;;;;;5.75;1.10;;;;;;;13.62;64.82;100303.63;5019313;28;20033;-73
2021/05/26 10:17:00;;;;;;;5.97;1.42;;;;;;;13.69;63.75;100301.72;5028616;28;20045;-74
2021/05/26 10:19:25;;;;;;;5.13;1.40;;;;;;;13.72;63.87;100296.34;5020054;28;20041;-74
2021/05/26 10:21:51;;;;;;;7.15;1.95;;;;;;;13.73;64.95;100300.78;5023944;28;20095;-73
2021/05/26 10:24:18;;;;;;;8.55;3.08;;;;;;;13.75;65.10;100293.63;5024286;28;20029;-74
2021/05/26 10:26:46;;;;;;;6.63;2.90;;;;;;;13.97;64.66;100302.84;5020793;28;20477;-74
2021/05/26 10:29:34;;;;;;;6.35;2.65;;;;;;;14.12;64.06;100300.72;5019521;28;20184;-74
2021/05/26 10:32:14;;;;;;;5.25;1.58;;;;;;;14.09;64.83;100300.78;5019274;28;20045;-74
2021/05/26 10:34:42;;;;;;;5.03;1.67;;;;;;;14.07;64.55;100292.88;5019548;28;20062;-75
2021/05/26 10:37:08;;;;;;;5.22;1.23;;;;;;;14.14;64.67;100299.75;5020102;28;20033;-74
2021/05/26 10:39:34;;;;;;;3.65;1.35;;;;;;;13.97;66.16;100291.38;5028470;28;20044;-74
2021/05/26 10:42:00;;;;;;;4.53;1.40;;;;;;;13.92;65.53;100294.13;5022881;28;20109;-74
2021/05/26 10:45:06;;;;;;;5.93;1.40;;;;;;;13.81;67.07;100293.50;5027811;28;20033;-74
2021/05/26 10:47:37;;;;;;;4.43;1.30;;;;;;;13.82;66.20;100295.25;5019168;28;20038;-73
2021/05/26 10:50:04;;;;;;;4.30;1.35;;;;;;;13.78;67.38;100297.09;5019720;28;20100;-74
2021/05/26 10:52:58;;;;;;;4.13;1.33;;;;;;;13.85;67.45;100292.50;5022512;28;20448;-74
2021/05/26 10:55:37;;;;;;;5.10;1.63;;;;;;;13.99;66.98;100292.16;5020454;28;20400;-74
2021/05/26 10:58:13;;;;;;;6.15;1.70;;;;;;;14.12;67.18;100295.41;5025766;28;20041;-75
2021/05/26 11:00:41;;;;;;;4.57;1.50;;;;;;;14.19;66.41;100289.03;5028055;28;20117;-75
2021/05/26 11:03:25;;;;;;;2.97;1.10;;;;;;;14.15;66.87;100284.75;5033741;28;20048;-76
2021/05/26 11:05:56;;;;;;;4.93;1.80;;;;;;;14.17;67.11;100278.50;5030308;28;20048;-75
2021/05/26 11:08:28;;;;;;;5.10;1.40;;;;;;;14.31;67.26;100286.09;5027980;28;20037;-75
2021/05/26 11:10:54;;;;;;;;;;;;;;;14.35;66.85;100276.25;5024406;28;20033;-75
2021/05/26 11:13:19;;;;;;;;;;;;;;;14.21;67.41;100285.44;5026949;28;20012;-75
2021/05/26 11:15:45;;;;;;;;;;;;;;;14.26;65.69;100282.69;5032122;28;19920;-75
2021/05/26 11:18:14;;;;;;;;;;;;;;;14.23;65.29;100277.44;5024534;28;19963;-76
2021/05/26 11:20:40;;;;;;;;;;;;;;;14.27;64.85;100283.53;5041914;28;19947;-76
2021/05/26 11:23:12;;;;;;;;;;;;;;;14.41;66.99;100279.63;5025254;28;19920;-76
2021/05/26 11:25:37;;;;;;;;;;;;;;;14.47;66.36;100276.81;5027875;28;20311;-75
2021/05/26 11:28:03;;;;;;;;;;;;;;;14.56;66.55;100280.16;5032538;28;19913;-76
2021/05/26 11:30:28;;;;;;;;;;;;;;;14.68;65.14;100275.41;5027497;28;19919;-76
2021/05/26 11:32:54;;;;;;;;;;;;;;;14.78;65.50;100273.38;5026679;28;19917;-76
2021/05/26 11:35:19;;;;;;;;;;;;;;;14.72;65.98;100273.53;5023669;28;19913;-75